Time;durP1;ratioP1;P1;durP2;ratioP2;P2;SDS_P1;SDS_P2;PMS_P1;PMS_P2;Temp;Humidity;BMP_temperature;BMP_pressure;BME280_temperature;BME280_humidity;BME280_pressure;Samples;Min_cycle;Max_cycle;Signal;HPM_P1;HPM_P2
2022/05/03 00:00:12;;;;;;;466.45;349.15;;;;;;;13.05;53.52;101172.97;678879;28;135724;-69
2022/05/03 00:00:36;;;;;;;472.15;379.20;;;;;;;13.03;53.12;101161.47;679655;28;90685;-69
2022/05/03 00:01:02;;;;;;;470.25;371.88;;;;;;;13.05;53.25;101164.84;681667;28;44231;-69
2022/05/03 00:01:27;;;;;;;469.77;360.77;;;;;;;13.06;53.04;101166.53;678055;28;138471;-69
2022/05/03 00:01:52;;;;;;;468.13;351.05;;;;;;;13.04;53.06;101165.88;678897;28;137533;-69
2022/05/03 00:02:16;;;;;;;462.88;335.92;;;;;;;13.07;53.05;101164.66;679181;28;115591;-69
2022/05/03 00:02:43;;;;;;;458.48;311.25;;;;;;;13.07;53.24;101168.25;681313;28;69424;-69
2022/05/03 00:03:10;;;;;;;466.85;360.92;;;;;;;13.07;52.89;101159.25;679319;28;135795;-69
2022/05/03 00:03:39;;;;;;;469.17;373.90;;;;;;;13.09;52.98;101168.88;679356;28;137740;-69
2022/05/03 00:04:06;;;;;;;464.98;353.45;;;;;;;13.10;53.33;101165.16;678501;28;138231;-69
2022/05/03 00:04:32;;;;;;;463.60;342.45;;;;;;;13.10;53.25;101161.59;679032;28;136332;-69
2022/05/03 00:05:00;;;;;;;460.30;322.35;;;;;;;13.11;52.99;101164.13;679335;28;137089;-69
2022/05/03 00:05:29;;;;;;;460.67;324.92;;;;;;;13.08;53.02;101163.66;677742;28;160999;-69
2022/05/03 00:06:01;;;;;;;459.50;309.83;;;;;;;13.07;53.25;101164.66;679058;28;136290;-69
2022/05/03 00:06:30;;;;;;;460.52;320.63;;;;;;;13.09;53.33;101165.34;677943;28;135950;-69
2022/05/03 00:06:56;;;;;;;457.23;306.25;;;;;;;13.07;53.22;101154.69;679553;28;137816;-69
2022/05/03 00:07:23;;;;;;;456.40;303.60;;;;;;;13.09;53.56;101166.16;678606;28;137993;-69
2022/05/03 00:07:48;;;;;;;465.67;350.57;;;;;;;13.09;53.56;101163.47;678080;28;159353;-69
2022/05/03 00:08:15;;;;;;;461.35;324.05;;;;;;;13.10;53.16;101164.28;679351;28;138374;-69
2022/05/03 00:08:38;;;;;;;467.48;358.35;;;;;;;13.11;53.63;101157.84;679131;28;137893;-69
2022/05/03 00:09:02;;;;;;;458.75;309.85;;;;;;;13.11;53.58;101166.81;680453;28;69128;-69
2022/05/03 00:09:30;;;;;;;460.75;319.25;;;;;;;13.13;53.27;101166.63;681063;28;69463;-69
2022/05/03 00:10:00;;;;;;;469.50;356.05;;;;;;;13.12;53.37;101171.22;678468;28;136884;-69
2022/05/03 00:10:24;;;;;;;461.85;330.60;;;;;;;13.15;53.47;101178.16;679151;28;137891;-69
2022/05/03 00:10:56;;;;;;;463.65;336.98;;;;;;;13.15;53.74;101165.44;679506;28;113637;-69
2022/05/03 00:11:28;;;;;;;462.33;321.90;;;;;;;13.19;53.23;101165.06;677755;28;158664;-69
2022/05/03 00:11:55;;;;;;;458.88;314.30;;;;;;;13.16;53.49;101164.44;676884;28;157909;-69
2022/05/03 00:12:20;;;;;;;457.58;304.80;;;;;;;13.18;53.33;101164.22;679047;28;138091;-69
2022/05/03 00:12:44;;;;;;;458.27;312.35;;;;;;;13.18;53.24;101166.09;680253;28;115073;-69
2022/05/03 00:13:07;;;;;;;462.38;334.52;;;;;;;13.16;53.52;101159.00;679538;28;92203;-69
2022/05/03 00:13:29;;;;;;;463.58;333.60;;;;;;;13.16;53.20;101163.56;680967;28;90411;-69
2022/05/03 00:13:59;;;;;;;461.95;332.17;;;;;;;13.22;53.54;101170.97;681840;28;45220;-69
2022/05/03 00:14:24;;;;;;;457.55;305.35;;;;;;;13.23;53.14;101169.09;678897;28;136188;-69
2022/05/03 00:14:48;;;;;;;455.95;299.23;;;;;;;13.23;53.07;101164.53;679865;28;116033;-69
2022/05/03 00:15:10;;;;;;;453.88;293.48;;;;;;;13.24;53.29;101168.91;679714;28;114888;-69
2022/05/03 00:15:34;;;;;;;454.00;290.75;;;;;;;13.21;53.39;101158.41;682783;28;21555;-69
2022/05/03 00:15:57;;;;;;;478.63;373.08;;;;;;;13.20;53.10;101159.47;679739;28;115885;-69
2022/05/03 00:16:19;;;;;;;507.20;451.52;;;;;;;13.23;53.33;101167.25;679157;28;46314;-69
2022/05/03 00:16:41;;;;;;;509.95;454.20;;;;;;;13.21;53.23;101161.13;678226;28;66327;-69
2022/05/03 00:17:04;;;;;;;493.65;418.40;;;;;;;13.21;53.13;101166.56;679630;28;45411;-69
2022/05/03 00:17:25;;;;;;;491.77;410.25;;;;;;;13.23;53.13;101166.38;678256;29;67148;-69
2022/05/03 00:17:47;;;;;;;485.52;383.40;;;;;;;13.21;53.27;101165.72;681056;28;22392;-69
2022/05/03 00:18:09;;;;;;;487.27;396.67;;;;;;;13.22;53.59;101164.72;681103;28;9459;-69
2022/05/03 00:18:30;;;;;;;486.55;389.33;;;;;;;13.24;53.27;101168.91;682033;28;45141;-69
2022/05/03 00:18:52;;;;;;;488.73;401.55;;;;;;;13.24;53.45;101166.19;681777;28;45362;-69
2022/05/03 00:19:13;;;;;;;488.63;393.55;;;;;;;13.25;53.50;101167.06;682839;28;22237;-69
2022/05/03 00:19:35;;;;;;;491.67;407.67;;;;;;;13.27;53.09;101168.53;682602;28;21522;-69
2022/05/03 00:19:57;;;;;;;490.20;387.23;;;;;;;13.27;53.42;101171.25;681090;28;67583;-69
2022/05/03 00:20:18;;;;;;;491.27;402.27;;;;;;;13.26;53.49;101166.00;682478;28;23426;-69
2022/05/03 00:20:39;;;;;;;481.35;369.50;;;;;;;13.25;53.46;101159.75;682506;28;22505;-69
2022/05/03 00:21:03;;;;;;;453.75;283.95;;;;;;;13.23;53.42;101147.38;681612;28;22445;-69
2022/05/03 00:21:24;;;;;;;453.88;286.67;;;;;;;13.29;53.38;101168.34;679793;28;85937;-69
2022/05/03 00:21:45;;;;;;;451.90;280.35;;;;;;;13.28;53.26;101156.66;682474;28;44369;-69
2022/05/03 00:22:06;;;;;;;449.88;272.08;;;;;;;13.31;53.48;101166.31;682740;28;23488;-69
2022/05/03 00:22:29;;;;;;;448.88;265.77;;;;;;;13.31;53.34;101160.88;681834;28;23395;-69
2022/05/03 00:22:50;;;;;;;448.63;262.67;;;;;;;13.31;53.32;101167.16;681443;28;46383;-69
2022/05/03 00:23:11;;;;;;;448.85;263.85;;;;;;;13.31;53.57;101161.72;681754;28;46335;-69
2022/05/03 00:23:33;;;;;;;466.52;314.63;;;;;;;13.30;53.58;101154.59;682431;28;23316;-69
2022/05/03 00:23:54;;;;;;;484.63;375.08;;;;;;;13.27;53.48;101148.72;682866;28;21488;-69
2022/05/03 00:24:16;;;;;;;484.80;378.08;;;;;;;13.26;53.41;101157.88;682861;28;23462;-69
2022/05/03 00:24:38;;;;;;;486.17;380.23;;;;;;;13.26;53.71;101156.03;681070;28;69922;-69
2022/05/03 00:24:59;;;;;;;486.60;386.10;;;;;;;13.26;53.35;101149.72;682830;28;21523;-69
2022/05/03 00:25:21;;;;;;;484.88;381.55;;;;;;;13.26;53.42;101152.44;682975;28;22399;-69
2022/05/03 00:25:43;;;;;;;487.67;398.38;;;;;;;13.28;53.70;101155.84;680561;28;69386;-69
2022/05/03 00:26:05;;;;;;;480.77;372.90;;;;;;;13.27;53.32;101154.13;683417;28;22412;-69
2022/05/03 00:26:28;;;;;;;488.92;392.80;;;;;;;13.27;53.68;101146.84;681330;28;44366;-69
2022/05/03 00:26:50;;;;;;;490.50;398.30;;;;;;;13.24;53.75;101151.78;680139;28;67502;-69
2022/05/03 00:27:11;;;;;;;490.42;403.80;;;;;;;13.27;53.47;101157.69;679164;29;45018;-69
2022/05/03 00:27:33;;;;;;;470.42;349.17;;;;;;;13.28;53.52;101156.66;678630;29;44373;-69
2022/05/03 00:27:54;;;;;;;454.65;302.50;;;;;;;13.28;53.68;101155.84;680200;29;21180;-69
2022/05/03 00:28:16;;;;;;;455.17;302.52;;;;;;;13.26;53.61;101149.72;679492;29;44177;-69
2022/05/03 00:28:38;;;;;;;459.83;324.70;;;;;;;13.28;53.71;101155.84;679294;29;44381;-69
2022/05/03 00:28:59;;;;;;;456.63;308.30;;;;;;;13.25;53.87;101151.63;679834;28;22118;-69
2022/05/03 00:29:21;;;;;;;457.75;315.38;;;;;;;13.27;53.79;101151.44;681971;28;45328;-69
2022/05/03 00:29:44;;;;;;;458.85;314.00;;;;;;;13.27;53.78;101148.72;681839;28;23271;-69
2022/05/03 00:30:06;;;;;;;460.38;323.38;;;;;;;13.31;53.97;101153.59;681336;28;66856;-69
2022/05/03 00:30:27;;;;;;;462.52;331.88;;;;;;;13.31;53.66;101153.59;681153;28;69105;-69
2022/05/03 00:30:49;;;;;;;461.75;335.40;;;;;;;13.31;53.85;101156.31;682212;28;22372;-69
2022/05/03 00:31:11;;;;;;;458.30;314.75;;;;;;;13.28;53.67;101148.53;683134;28;21360;-69
2022/05/03 00:31:32;;;;;;;457.02;310.38;;;;;;;13.32;53.65;101154.41;681016;28;68325;-69
2022/05/03 00:31:53;;;;;;;457.90;311.60;;;;;;;13.28;53.79;101150.41;682418;28;23433;-69
2022/05/03 00:32:15;;;;;;;460.50;326.48;;;;;;;13.30;53.96;101154.59;682516;28;22388;-69
2022/05/03 00:32:39;;;;;;;452.77;285.02;;;;;;;13.28;53.57;101151.25;681323;28;46284;-69
2022/05/03 00:33:02;;;;;;;457.50;309.20;;;;;;;13.31;54.13;101152.75;681441;28;69374;-69
2022/05/03 00:33:23;;;;;;;455.40;298.02;;;;;;;13.30;53.77;101151.88;680426;28;90563;-67
2022/05/03 00:33:44;;;;;;;462.40;335.33;;;;;;;13.29;53.80;101152.94;683060;28;21518;-68
2022/05/03 00:34:07;;;;;;;468.02;364.35;;;;;;;13.27;54.12;101151.44;682747;28;21224;-68
2022/05/03 00:34:31;;;;;;;467.08;355.02;;;;;;;13.30;54.03;101151.06;682150;28;44329;-68
2022/05/03 00:34:53;;;;;;;454.73;299.17;;;;;;;13.28;53.80;101150.41;679662;28;113650;-68
2022/05/03 00:35:15;;;;;;;456.52;310.10;;;;;;;13.27;54.02;101143.28;680807;28;70110;-68
2022/05/03 00:35:39;;;;;;;463.27;342.23;;;;;;;13.24;53.63;101138.22;682040;28;46400;-68
2022/05/03 00:36:01;;;;;;;466.98;356.42;;;;;;;13.27;53.90;101152.25;680401;28;92142;-68
2022/05/03 00:36:23;;;;;;;460.33;327.33;;;;;;;13.27;53.88;101154.13;681140;28;46306;-68
2022/05/03 00:36:44;;;;;;;462.77;339.27;;;;;;;13.26;53.52;101152.44;681896;28;47063;-69
2022/05/03 00:37:06;;;;;;;463.17;342.08;;;;;;;13.24;53.94;101140.94;683304;28;22420;-68
2022/05/03 00:37:28;;;;;;;458.63;318.67;;;;;;;13.26;53.68;101147.88;681375;28;45068;-68
2022/05/03 00:37:49;;;;;;;461.27;331.85;;;;;;;13.27;54.00;101149.53;681007;28;46200;-68
2022/05/03 00:38:10;;;;;;;458.10;314.77;;;;;;;13.26;53.72;101144.31;682797;28;23520;-68
2022/05/03 00:38:34;;;;;;;458.77;320.50;;;;;;;13.26;53.98;101145.16;682511;28;24339;-68
2022/05/03 00:38:55;;;;;;;463.83;341.30;;;;;;;13.25;53.92;101146.19;681708;28;67091;-68
2022/05/03 00:39:16;;;;;;;461.95;337.48;;;;;;;13.25;53.90;101140.75;681205;28;46151;-68
2022/05/03 00:39:37;;;;;;;465.92;345.45;;;;;;;13.25;54.05;101148.91;682104;28;22393;-68
2022/05/03 00:40:00;;;;;;;461.05;322.00;;;;;;;13.28;54.12;101150.41;682758;28;21504;-68
2022/05/03 00:40:22;;;;;;;465.38;351.48;;;;;;;13.29;54.28;101149.38;682285;28;46292;-68
2022/05/03 00:40:48;;;;;;;457.67;307.27;;;;;;;13.30;54.03;101151.88;682666;28;23025;-68
2022/05/03 00:41:11;;;;;;;459.77;321.27;;;;;;;13.31;54.06;101150.88;678770;28;138275;-68
2022/05/03 00:41:37;;;;;;;464.40;343.65;;;;;;;13.33;53.90;101151.56;680516;28;67141;-68
2022/05/03 00:42:03;;;;;;;459.27;318.55;;;;;;;13.34;53.99;101147.81;678072;28;138157;-68
2022/05/03 00:42:27;;;;;;;464.05;341.95;;;;;;;13.36;53.62;101152.22;676224;28;138125;-68
2022/05/03 00:42:55;;;;;;;461.02;324.30;;;;;;;13.33;53.81;101135.28;679393;28;92232;-68
2022/05/03 00:43:23;;;;;;;459.38;304.35;;;;;;;13.35;53.71;101148.66;678733;28;138073;-68
2022/05/03 00:43:55;;;;;;;461.27;327.17;;;;;;;13.34;53.84;101150.53;678670;28;137653;-68
2022/05/03 00:45:10;;;;;;;460.95;334.10;;;;;;;13.28;53.71;101148.53;665540;29;136851;-68
2022/05/03 00:45:37;;;;;;;460.85;329.48;;;;;;;13.25;54.22;101148.91;673876;29;137654;-68
2022/05/03 00:46:01;;;;;;;462.50;335.55;;;;;;;13.25;54.33;101146.19;674031;29;138124;-68
2022/05/03 00:46:25;;;;;;;462.00;334.77;;;;;;;13.27;54.28;101149.53;677158;28;91729;-68
2022/05/03 00:46:47;;;;;;;469.17;372.60;;;;;;;13.27;54.21;101152.25;677801;29;92216;-68
2022/05/03 00:47:15;;;;;;;459.08;316.98;;;;;;;13.24;54.28;101143.66;679556;29;43911;-68
2022/05/03 00:47:43;;;;;;;462.00;331.83;;;;;;;13.25;54.34;101145.34;675463;29;138022;-68
2022/05/03 00:48:24;;;;;;;458.92;315.08;;;;;;;13.26;54.09;101147.03;678991;28;60818;-68
2022/05/03 00:49:27;;;;;;;461.98;333.70;;;;;;;13.24;54.38;101141.78;678806;28;137727;-68
2022/05/03 00:49:55;;;;;;;453.27;282.38;;;;;;;13.24;54.48;101141.78;670710;29;137334;-68
2022/05/03 00:50:29;;;;;;;458.45;312.05;;;;;;;13.23;53.87;101144.69;675176;28;136264;-68
2022/05/03 00:50:58;;;;;;;466.05;349.27;;;;;;;13.22;54.45;101146.56;678727;28;137648;-68
2022/05/03 00:51:27;;;;;;;459.33;321.00;;;;;;;13.24;54.33;101143.66;678282;28;136057;-68
2022/05/03 00:51:55;;;;;;;466.50;352.95;;;;;;;13.24;54.45;101141.78;677884;28;160908;-68
2022/05/03 00:52:23;;;;;;;457.65;312.65;;;;;;;13.25;54.30;101140.75;678701;28;137627;-68
2022/05/03 00:52:49;;;;;;;470.70;377.35;;;;;;;13.23;54.34;101142.81;678784;28;137963;-68
2022/05/03 00:53:15;;;;;;;471.27;379.95;;;;;;;13.27;54.16;101146.00;678540;28;138403;-68
2022/05/03 00:53:43;;;;;;;466.67;353.80;;;;;;;13.23;53.75;101134.69;678671;28;136393;-68
2022/05/03 00:54:13;;;;;;;462.42;331.90;;;;;;;13.25;53.60;101140.75;678375;28;136252;-68
2022/05/03 00:54:45;;;;;;;463.98;340.30;;;;;;;13.25;53.83;101139.94;678310;28;136088;-68
2022/05/03 00:55:27;;;;;;;459.35;321.23;;;;;;;13.21;54.25;101139.44;678707;28;136035;-68
2022/05/03 00:56:04;;;;;;;456.27;303.73;;;;;;;13.20;54.13;101142.34;678416;28;135978;-68
2022/05/03 00:56:35;;;;;;;463.08;333.63;;;;;;;13.19;54.02;101140.66;677519;28;137968;-68
2022/05/03 00:57:09;;;;;;;457.83;316.17;;;;;;;13.15;54.14;101130.19;679243;28;137497;-68
2022/05/03 00:57:36;;;;;;;463.05;331.95;;;;;;;13.14;54.37;101143.94;677254;28;161138;-68
2022/05/03 00:58:08;;;;;;;458.58;311.17;;;;;;;13.15;54.26;101135.59;678928;28;136438;-68
2022/05/03 00:58:42;;;;;;;455.63;294.88;;;;;;;13.16;54.32;101148.16;678183;28;138520;-68
2022/05/03 00:59:10;;;;;;;457.33;303.10;;;;;;;13.15;54.26;101134.78;678374;28;135963;-68
2022/05/03 00:59:46;;;;;;;456.05;297.05;;;;;;;13.15;54.40;101151.06;677823;28;159232;-68
2022/05/03 01:00:10;;;;;;;457.17;310.42;;;;;;;13.12;54.48;101144.13;678647;28;137698;-68
2022/05/03 01:00:34;;;;;;;458.45;312.85;;;;;;;13.08;54.55;101133.81;679518;28;92263;-68
2022/05/03 01:00:58;;;;;;;463.52;342.55;;;;;;;13.12;54.34;101137.84;680115;28;94861;-68
2022/05/03 01:01:26;;;;;;;461.05;326.15;;;;;;;13.12;54.64;101135.97;678350;28;113400;-68
2022/05/03 01:01:56;;;;;;;462.20;327.23;;;;;;;13.12;54.28;101144.13;678712;28;139516;-68
2022/05/03 01:02:23;;;;;;;464.83;345.23;;;;;;;13.08;54.51;101128.41;679043;28;138380;-68
2022/05/03 01:02:58;;;;;;;457.90;311.77;;;;;;;13.13;54.84;101142.22;679055;28;136375;-68
2022/05/03 01:03:26;;;;;;;462.17;332.88;;;;;;;13.12;54.85;101138.69;678737;28;137357;-68
2022/05/03 01:03:56;;;;;;;462.02;332.70;;;;;;;13.12;54.81;101141.41;678978;28;137796;-68
2022/05/03 01:04:24;;;;;;;466.83;356.67;;;;;;;13.15;54.89;101134.78;678384;28;137985;-68
2022/05/03 01:04:56;;;;;;;465.30;344.77;;;;;;;13.16;54.63;101134.59;678654;28;137923;-68
2022/05/03 01:05:20;;;;;;;464.55;350.15;;;;;;;13.19;54.91;101136.06;678986;28;137584;-68
2022/05/03 01:05:46;;;;;;;467.15;364.73;;;;;;;13.19;54.79;101130.66;680942;28;92087;-68
2022/05/03 01:06:17;;;;;;;468.27;362.70;;;;;;;13.19;54.55;101132.53;678804;28;137641;-68
2022/05/03 01:06:51;;;;;;;457.15;308.55;;;;;;;13.18;54.67;101128.94;678092;28;137488;-68
2022/05/03 01:07:27;;;;;;;465.25;355.80;;;;;;;13.21;54.74;101134.00;678657;28;135889;-68
2022/05/03 01:08:00;;;;;;;466.50;353.92;;;;;;;13.17;54.38;101124.56;679007;28;137323;-68
2022/05/03 01:08:29;;;;;;;460.02;318.27;;;;;;;13.21;54.72;101130.47;679980;28;96370;-68
2022/05/03 01:09:02;;;;;;;465.20;350.65;;;;;;;13.24;54.84;101128.22;679501;28;137321;-68
2022/05/03 01:09:34;;;;;;;464.70;342.35;;;;;;;13.23;54.67;101122.97;680856;28;80337;-68
2022/05/03 01:10:04;;;;;;;474.45;388.85;;;;;;;13.23;54.39;101125.69;678117;28;160500;-68
2022/05/03 01:10:31;;;;;;;468.13;368.45;;;;;;;13.25;54.56;101126.38;680915;28;81970;-68
2022/05/03 01:11:06;;;;;;;463.08;342.05;;;;;;;13.24;54.62;101128.22;681322;28;61508;-68
2022/05/03 01:11:34;;;;;;;457.27;308.50;;;;;;;13.23;54.68;101121.13;678234;28;137661;-68
2022/05/03 01:12:03;;;;;;;458.27;313.02;;;;;;;13.22;54.70;101114.00;678880;28;137734;-68
2022/05/03 01:12:25;;;;;;;467.33;357.38;;;;;;;13.25;54.56;101124.50;678434;28;139209;-68
2022/05/03 01:12:53;;;;;;;460.25;322.20;;;;;;;13.27;54.42;101117.00;681776;28;46528;-68
2022/05/03 01:13:18;;;;;;;459.42;318.60;;;;;;;13.30;54.46;101123.94;678563;28;139037;-68
2022/05/03 01:13:42;;;;;;;457.90;306.40;;;;;;;13.27;54.49;101116.16;678118;28;138147;-68
2022/05/03 01:14:12;;;;;;;459.15;318.75;;;;;;;13.32;54.50;101122.72;680684;28;70257;-68
2022/05/03 01:14:44;;;;;;;461.25;329.90;;;;;;;13.36;54.70;101122.38;678401;28;135339;-69
2022/05/03 01:15:08;;;;;;;456.98;299.92;;;;;;;13.37;54.49;101116.78;678813;28;138192;-68
2022/05/03 01:15:31;;;;;;;458.55;307.25;;;;;;;13.37;54.13;101124.06;681256;28;69595;-68
2022/05/03 01:15:55;;;;;;;457.30;304.67;;;;;;;13.35;54.36;101118.81;680027;28;69413;-68
2022/05/03 01:16:27;;;;;;;459.15;316.60;;;;;;;13.34;54.25;101115.28;679762;28;92336;-68
2022/05/03 01:16:55;;;;;;;453.23;288.92;;;;;;;13.36;54.42;101123.22;677300;28;157213;-68
2022/05/03 01:17:20;;;;;;;458.70;314.70;;;;;;;13.37;54.31;101121.34;679206;28;137617;-68
2022/05/03 01:17:44;;;;;;;458.45;314.10;;;;;;;13.37;54.57;101121.34;679926;28;115927;-68
2022/05/03 01:18:15;;;;;;;457.40;309.95;;;;;;;13.34;54.52;101122.56;681008;28;90224;-68
2022/05/03 01:18:41;;;;;;;459.33;318.90;;;;;;;13.36;54.38;101120.50;678373;28;160876;-68
2022/05/03 01:19:13;;;;;;;455.67;304.08;;;;;;;13.39;54.39;101113.88;677943;28;137722;-68
2022/05/03 01:19:48;;;;;;;454.15;287.63;;;;;;;13.40;54.46;101115.53;678815;28;136804;-68
2022/05/03 01:20:10;;;;;;;456.05;302.02;;;;;;;13.40;54.44;101113.69;678441;28;138023;-68
2022/05/03 01:20:43;;;;;;;455.65;301.85;;;;;;;13.42;54.22;101110.78;680975;28;67488;-68
2022/05/03 01:21:08;;;;;;;464.17;340.65;;;;;;;13.40;54.25;101110.97;678231;28;137405;-68
2022/05/03 01:21:50;;;;;;;466.35;347.60;;;;;;;13.39;54.25;101105.75;679052;28;115331;-68
2022/05/03 01:22:25;;;;;;;465.25;352.77;;;;;;;13.34;54.19;101107.13;677793;28;160701;-68
2022/05/03 01:23:26;;;;;;;463.08;330.25;;;;;;;13.34;54.17;101106.31;678669;28;137704;-68
2022/05/03 01:24:17;;;;;;;456.83;306.48;;;;;;;13.30;54.75;101108.50;679054;28;135934;-68
2022/05/03 01:25:03;;;;;;;463.63;337.25;;;;;;;13.28;54.74;101107.84;668406;29;137158;-68
2022/05/03 01:25:53;;;;;;;460.98;323.52;;;;;;;13.28;54.79;101109.72;678183;28;160619;-68
2022/05/03 01:26:53;;;;;;;463.75;341.83;;;;;;;13.31;54.55;101112.91;678201;28;136008;-68
2022/05/03 01:27:33;;;;;;;457.08;309.00;;;;;;;13.33;54.29;101110.03;677816;28;156241;-68
2022/05/03 01:27:59;;;;;;;461.23;324.67;;;;;;;13.40;54.53;101110.13;678673;28;135982;-68
2022/05/03 01:28:29;;;;;;;455.67;305.42;;;;;;;13.43;54.07;101113.31;680087;28;137804;-68
2022/05/03 01:29:13;;;;;;;459.92;323.15;;;;;;;13.44;54.53;101106.00;676752;29;138485;-68
2022/05/03 01:29:35;;;;;;;460.85;330.38;;;;;;;13.44;54.48;101103.31;676859;28;137928;-69
2022/05/03 01:29:58;;;;;;;456.52;311.42;;;;;;;13.40;54.33;101100.13;680425;29;45308;-68
2022/05/03 01:30:20;;;;;;;456.80;314.52;;;;;;;13.43;54.40;101105.19;680419;28;46517;-68
2022/05/03 01:30:45;;;;;;;458.52;322.27;;;;;;;13.44;54.53;101103.31;680859;28;46347;-68
2022/05/03 01:31:10;;;;;;;464.30;343.67;;;;;;;13.39;54.41;101103.88;680596;28;113578;-68
2022/05/03 01:31:31;;;;;;;464.60;334.65;;;;;;;13.40;54.49;101104.69;677524;28;113549;-68
2022/05/03 01:31:57;;;;;;;468.20;353.52;;;;;;;13.40;54.74;101102.84;681008;28;22383;-69
2022/05/03 01:32:19;;;;;;;455.73;297.40;;;;;;;13.41;54.47;101104.50;676076;29;160026;-68
2022/05/03 01:32:43;;;;;;;462.67;337.23;;;;;;;13.40;54.50;101105.56;679664;28;70022;-68
2022/05/03 01:33:08;;;;;;;457.60;310.55;;;;;;;13.39;54.42;101108.44;679149;29;69310;-68
2022/05/03 01:33:32;;;;;;;457.10;303.40;;;;;;;13.41;54.74;101103.69;677352;28;138850;-68
2022/05/03 01:33:58;;;;;;;467.02;357.95;;;;;;;13.37;54.43;101100.50;681314;28;91671;-68
2022/05/03 01:34:19;;;;;;;469.73;372.70;;;;;;;13.40;54.86;101108.28;680112;28;112958;-68
2022/05/03 01:34:46;;;;;;;458.98;315.50;;;;;;;13.41;55.00;101114.53;682475;28;46347;-68
2022/05/03 01:35:08;;;;;;;453.92;286.58;;;;;;;13.40;54.91;101110.13;679546;28;137737;-68
2022/05/03 01:35:37;;;;;;;456.08;295.88;;;;;;;13.39;54.63;101108.44;682595;28;45316;-68
2022/05/03 01:36:00;;;;;;;465.67;344.15;;;;;;;13.39;54.98;101109.28;679788;28;136099;-68
2022/05/03 01:36:33;;;;;;;466.02;343.63;;;;;;;13.39;54.61;101109.28;681372;28;68414;-68
2022/05/03 01:37:23;;;;;;;471.00;365.80;;;;;;;13.36;55.01;101112.38;679987;28;137664;-68
2022/05/03 01:37:58;;;;;;;467.75;356.13;;;;;;;13.42;54.63;101116.22;678919;28;160619;-68
2022/05/03 01:38:34;;;;;;;460.27;321.13;;;;;;;13.42;54.79;101116.22;679055;28;138562;-68
2022/05/03 01:39:02;;;;;;;466.98;356.17;;;;;;;13.46;54.44;101117.50;678463;28;161469;-68
2022/05/03 01:39:32;;;;;;;461.98;331.55;;;;;;;13.48;54.61;101116.31;679952;28;137786;-68
2022/05/03 01:40:03;;;;;;;458.60;310.80;;;;;;;13.47;54.62;101108.34;679567;28;137169;-68
2022/05/03 01:40:32;;;;;;;461.55;337.38;;;;;;;13.48;54.75;101118.19;679446;28;137208;-68
2022/05/03 01:41:07;;;;;;;458.88;320.83;;;;;;;13.45;55.14;101113.13;678642;28;137730;-68
2022/05/03 01:41:48;;;;;;;468.10;359.08;;;;;;;13.44;55.10;101116.88;678859;28;137710;-68
2022/05/03 01:42:15;;;;;;;459.63;319.33;;;;;;;13.46;55.13;101117.50;679791;28;138770;-68
2022/05/03 01:42:50;;;;;;;455.55;295.58;;;;;;;13.43;55.01;101113.31;679087;28;139062;-68
2022/05/03 01:43:12;;;;;;;464.70;341.90;;;;;;;13.43;55.23;101123.31;677292;29;138235;-68
2022/05/03 01:43:47;;;;;;;463.45;336.08;;;;;;;13.40;54.90;101123.69;679955;28;67317;-68
2022/05/03 01:44:13;;;;;;;465.77;354.10;;;;;;;13.42;55.07;101118.94;675626;29;160706;-68
2022/05/03 01:44:38;;;;;;;462.90;331.35;;;;;;;13.40;55.33;101121.84;676094;29;138021;-68
2022/05/03 01:45:02;;;;;;;459.95;319.70;;;;;;;13.40;54.83;101119.13;678012;28;136334;-68
2022/05/03 01:45:31;;;;;;;457.80;309.23;;;;;;;13.39;54.99;101117.44;682611;28;49746;-68
2022/05/03 01:46:02;;;;;;;455.63;299.92;;;;;;;13.36;55.46;101114.25;679482;28;137828;-68
2022/05/03 01:46:24;;;;;;;467.13;360.27;;;;;;;13.37;55.12;101122.22;680244;28;102371;-68
2022/05/03 01:46:50;;;;;;;462.45;336.00;;;;;;;13.33;55.05;101110.03;684051;28;1378;-68
2022/05/03 01:47:17;;;;;;;460.20;321.75;;;;;;;13.33;55.41;101119.00;678898;28;137812;-68
2022/05/03 01:47:45;;;;;;;456.70;308.42;;;;;;;13.30;55.36;101110.38;679977;28;139335;-68
2022/05/03 01:48:18;;;;;;;459.48;316.63;;;;;;;13.32;55.60;101130.88;680129;28;135549;-68
2022/05/03 01:50:19;;;;;;;460.53;325.77;;;;;;;13.21;55.24;101127.75;679112;28;160355;-68
2022/05/03 01:50:42;;;;;;;462.58;332.02;;;;;;;13.19;55.69;101125.22;679338;28;137340;-68
2022/05/03 01:51:09;;;;;;;465.55;354.60;;;;;;;13.16;55.86;101123.75;681930;28;67510;-68
2022/05/03 01:51:38;;;;;;;460.70;327.95;;;;;;;13.15;56.00;101124.75;677873;28;159329;-68
2022/05/03 01:52:32;;;;;;;458.73;320.70;;;;;;;13.14;56.04;101123.06;679712;28;137679;-68
2022/05/03 01:53:10;;;;;;;460.08;327.88;;;;;;;13.10;55.81;101126.31;679699;28;137795;-68
2022/05/03 01:53:35;;;;;;;460.80;329.23;;;;;;;13.12;55.94;101129.72;679832;28;135980;-68
2022/05/03 01:54:08;;;;;;;452.55;286.00;;;;;;;13.11;56.10;101122.59;680384;28;115188;-68
2022/05/03 01:55:03;;;;;;;456.55;305.25;;;;;;;13.10;55.93;101120.91;679417;28;136014;-68
2022/05/03 01:55:46;;;;;;;458.58;318.00;;;;;;;13.07;56.14;101118.56;679596;28;137619;-68
2022/05/03 01:56:22;;;;;;;454.75;296.40;;;;;;;12.98;56.27;101117.81;676010;28;138849;-68
2022/05/03 01:56:56;;;;;;;463.90;343.50;;;;;;;13.02;56.33;101129.13;678489;28;157405;-68
2022/05/03 01:57:22;;;;;;;454.50;299.02;;;;;;;13.02;56.39;101123.72;679798;28;135641;-68
2022/05/03 01:57:55;;;;;;;459.30;321.05;;;;;;;13.02;56.31;101123.72;679749;28;139590;-68
2022/05/03 01:58:21;;;;;;;461.13;330.67;;;;;;;12.99;56.34;101130.31;679943;28;137236;-68
2022/05/03 01:58:56;;;;;;;462.67;338.67;;;;;;;13.02;56.19;101126.41;679500;28;138150;-68
2022/05/03 01:59:31;;;;;;;461.15;331.08;;;;;;;13.02;56.17;101131.84;679555;28;135569;-68
2022/05/03 02:00:05;;;;;;;454.25;295.23;;;;;;;13.01;56.16;101119.28;679064;28;160912;-68
2022/05/03 02:00:34;;;;;;;461.90;335.88;;;;;;;12.98;55.93;101125.94;679696;28;137675;-68
2022/05/03 02:01:02;;;;;;;463.02;337.48;;;;;;;13.02;56.26;101123.72;681976;28;45302;-68
2022/05/03 02:01:30;;;;;;;459.77;313.17;;;;;;;13.00;56.17;101123.06;677702;28;138005;-68
2022/05/03 02:01:56;;;;;;;454.63;297.05;;;;;;;13.01;56.15;101131.00;680109;28;138003;-68
2022/05/03 02:02:25;;;;;;;464.67;347.17;;;;;;;13.01;55.96;101125.59;680323;28;114766;-68
2022/05/03 02:02:53;;;;;;;462.98;336.58;;;;;;;12.97;56.11;101121.53;680020;28;120002;-68
2022/05/03 02:03:25;;;;;;;451.65;283.00;;;;;;;13.00;56.04;101125.75;678667;28;159264;-68
2022/05/03 02:03:49;;;;;;;465.08;350.10;;;;;;;12.99;56.17;101124.91;680099;28;137553;-68
2022/05/03 02:04:24;;;;;;;467.98;368.05;;;;;;;12.97;56.38;101118.84;681738;28;62862;-68
2022/05/03 02:05:00;;;;;;;462.55;328.77;;;;;;;12.96;56.13;101126.13;679814;28;137766;-68
2022/05/03 02:05:32;;;;;;;463.63;345.23;;;;;;;12.96;56.16;101120.72;679710;28;135975;-68
2022/05/03 02:06:00;;;;;;;461.27;324.02;;;;;;;12.93;56.36;101122.91;679305;28;137720;-68